Time;durP1;ratioP1;P1;durP2;ratioP2;P2;SDS_P1;SDS_P2;PMS_P1;PMS_P2;Temp;Humidity;BMP_temperature;BMP_pressure;BME280_temperature;BME280_humidity;BME280_pressure;Samples;Min_cycle;Max_cycle;Signal;HPM_P1;HPM_P2
2021/04/07 00:01:19;;;;;;;2.47;2.07;;;6.10;48.90;;;;;;5032101;28;21538;-50
2021/04/07 00:03:47;;;;;;;3.53;2.50;;;6.10;48.90;;;;;;5032140;28;21186;-50
2021/04/07 00:06:13;;;;;;;2.73;1.90;;;6.10;48.80;;;;;;5031780;28;20626;-51
2021/04/07 00:08:43;;;;;;;4.10;2.40;;;6.00;49.20;;;;;;5031164;28;20635;-50
2021/04/07 00:11:09;;;;;;;4.07;3.20;;;6.00;49.50;;;;;;5032093;28;20677;-51
2021/04/07 00:13:36;;;;;;;1.83;1.73;;;5.90;49.80;;;;;;5032160;28;20619;-51
2021/04/07 00:16:03;;;;;;;3.17;2.17;;;5.90;50.00;;;;;;5031922;28;20761;-51
2021/04/07 00:18:30;;;;;;;3.90;2.57;;;5.90;50.10;;;;;;5032035;28;20247;-51
2021/04/07 00:20:58;;;;;;;2.77;2.27;;;5.90;50.30;;;;;;5031008;28;20725;-50
2021/04/07 00:23:24;;;;;;;2.50;1.60;;;5.90;50.50;;;;;;5031460;28;20631;-51
2021/04/07 00:25:51;;;;;;;2.03;1.80;;;5.90;50.50;;;;;;5030883;28;21322;-50
2021/04/07 00:28:20;;;;;;;2.30;2.10;;;5.90;50.40;;;;;;5017536;28;21334;-50
2021/04/07 00:30:47;;;;;;;3.80;2.20;;;5.90;50.50;;;;;;5012090;28;20734;-51
2021/04/07 00:33:14;;;;;;;1.70;1.60;;;6.00;50.80;;;;;;5021605;28;20635;-50
2021/04/07 00:35:40;;;;;;;3.00;2.17;;;5.90;50.20;;;;;;5031057;28;21035;-51
2021/04/07 00:38:08;;;;;;;4.90;2.17;;;6.00;50.50;;;;;;5030954;28;20618;-51
2021/04/07 00:40:35;;;;;;;3.20;2.73;;;6.00;50.50;;;;;;5031630;28;20627;-51
2021/04/07 00:43:02;;;;;;;2.97;2.47;;;5.90;50.30;;;;;;5030833;28;20689;-50
2021/04/07 00:45:29;;;;;;;3.90;2.20;;;5.90;50.30;;;;;;5031150;28;21272;-50
2021/04/07 00:47:56;;;;;;;6.47;3.83;;;5.90;50.50;;;;;;5030944;28;21225;-50
2021/04/07 00:50:24;;;;;;;2.50;2.17;;;5.90;50.60;;;;;;5030963;28;20631;-51
2021/04/07 00:52:51;;;;;;;3.40;3.10;;;5.90;50.40;;;;;;5030879;28;20655;-51
2021/04/07 00:55:19;;;;;;;3.70;3.00;;;5.90;50.60;;;;;;5031331;28;21228;-50
2021/04/07 00:57:46;;;;;;;3.00;2.27;;;5.90;50.70;;;;;;5031133;28;21166;-51
2021/04/07 01:00:13;;;;;;;5.03;3.90;;;6.00;50.70;;;;;;5031151;28;20680;-51
2021/04/07 01:02:40;;;;;;;2.70;2.50;;;6.00;50.90;;;;;;5030476;28;20676;-51
2021/04/07 01:05:08;;;;;;;3.20;2.90;;;6.00;50.70;;;;;;5030950;28;20630;-51
2021/04/07 01:07:35;;;;;;;2.57;2.37;;;6.00;50.80;;;;;;5031115;28;20661;-51
2021/04/07 01:10:02;;;;;;;4.30;2.97;;;6.00;50.60;;;;;;5034780;28;20693;-50
2021/04/07 01:12:30;;;;;;;3.07;2.60;;;6.00;50.70;;;;;;5035053;28;20697;-50
2021/04/07 01:14:57;;;;;;;3.43;2.60;;;6.10;50.70;;;;;;5035365;28;20623;-51
2021/04/07 01:17:23;;;;;;;5.33;3.00;;;6.10;50.60;;;;;;5035253;28;20677;-51
2021/04/07 01:19:50;;;;;;;6.53;3.87;;;6.10;50.40;;;;;;5034925;28;20661;-51
2021/04/07 01:22:25;;;;;;;4.63;2.67;;;6.00;50.30;;;;;;5035196;28;20652;-50
2021/04/07 01:24:53;;;;;;;3.20;2.90;;;6.00;50.10;;;;;;5027928;28;20626;-51
2021/04/07 01:27:27;;;;;;;3.20;2.70;;;5.90;50.20;;;;;;5034994;28;20625;-50
2021/04/07 01:30:10;;;;;;;4.47;3.13;;;6.00;50.40;;;;;;5034999;28;21184;-51
2021/04/07 01:32:37;;;;;;;7.20;3.13;;;6.00;49.90;;;;;;5034828;28;20677;-51
2021/04/07 01:35:14;;;;;;;6.47;4.30;;;5.90;49.70;;;;;;5034761;28;20631;-50
2021/04/07 01:37:49;;;;;;;3.73;3.10;;;5.90;50.30;;;;;;5034890;28;20611;-51
2021/04/07 01:40:29;;;;;;;5.87;3.13;;;6.00;50.50;;;;;;5033970;28;20724;-51
2021/04/07 01:42:56;;;;;;;3.63;2.83;;;6.00;50.90;;;;;;5032236;28;20634;-51
2021/04/07 01:45:22;;;;;;;5.53;3.20;;;6.00;51.30;;;;;;5034340;28;21199;-51
2021/04/07 01:47:49;;;;;;;3.70;3.40;;;6.00;50.70;;;;;;5034192;28;20732;-51
2021/04/07 01:50:16;;;;;;;4.50;2.83;;;6.00;50.40;;;;;;5034326;28;20639;-51
2021/04/07 01:52:43;;;;;;;5.67;3.67;;;6.10;50.50;;;;;;5034432;28;20673;-52
2021/04/07 01:55:10;;;;;;;8.13;3.67;;;6.00;50.30;;;;;;5034791;28;20627;-51
2021/04/07 01:57:38;;;;;;;3.30;2.80;;;6.10;50.30;;;;;;5033758;28;21062;-51
2021/04/07 02:00:07;;;;;;;4.60;2.43;;;6.10;50.30;;;;;;5032561;28;20627;-51
2021/04/07 02:02:34;;;;;;;5.10;3.90;;;6.10;50.30;;;;;;5034518;28;20650;-51
2021/04/07 02:05:01;;;;;;;4.00;3.13;;;6.10;50.30;;;;;;5032206;28;20627;-51
2021/04/07 02:07:27;;;;;;;5.50;3.47;;;6.00;50.30;;;;;;5033916;28;20638;-51
2021/04/07 02:09:54;;;;;;;3.93;2.90;;;6.10;50.40;;;;;;5034390;28;20665;-51
2021/04/07 02:12:21;;;;;;;4.20;3.47;;;6.10;50.60;;;;;;5034083;28;20713;-51
2021/04/07 02:14:49;;;;;;;6.40;2.93;;;6.10;50.50;;;;;;5034077;28;20660;-51
2021/04/07 02:17:16;;;;;;;5.57;3.40;;;6.10;50.90;;;;;;5033954;28;20647;-51
2021/04/07 02:19:43;;;;;;;2.73;2.53;;;6.10;51.30;;;;;;5032358;28;21039;-51
2021/04/07 02:22:11;;;;;;;12.63;3.80;;;6.10;51.40;;;;;;5034124;28;20651;-51
2021/04/07 02:24:39;;;;;;;4.33;3.27;;;6.10;51.40;;;;;;5034075;28;20676;-51
2021/04/07 02:27:10;;;;;;;6.07;3.00;;;6.10;51.50;;;;;;5033544;28;20631;-50
2021/04/07 02:29:36;;;;;;;3.20;2.90;;;6.00;51.50;;;;;;5033346;28;20619;-50
2021/04/07 02:32:05;;;;;;;5.07;3.40;;;6.00;51.00;;;;;;5033701;28;20728;-51
2021/04/07 02:34:32;;;;;;;4.60;3.77;;;6.00;51.00;;;;;;5033935;28;20680;-50
2021/04/07 02:36:58;;;;;;;6.10;3.07;;;5.90;51.20;;;;;;5033645;28;20618;-51
2021/04/07 02:39:25;;;;;;;7.17;2.97;;;5.90;50.60;;;;;;5031923;28;20623;-51
2021/04/07 02:41:52;;;;;;;4.90;3.87;;;5.80;50.90;;;;;;5032711;28;20651;-51
2021/04/07 02:44:19;;;;;;;4.43;3.77;;;5.80;51.00;;;;;;5033926;28;20700;-52
2021/04/07 02:46:46;;;;;;;6.77;3.47;;;5.80;50.80;;;;;;5033622;28;20684;-51
2021/04/07 02:49:13;;;;;;;6.17;3.80;;;5.80;51.20;;;;;;5033218;28;20683;-51
2021/04/07 02:51:40;;;;;;;3.90;3.60;;;5.80;51.30;;;;;;5032911;28;20731;-51
2021/04/07 02:54:07;;;;;;;3.90;2.90;;;5.80;51.00;;;;;;5033019;28;20629;-51
2021/04/07 02:56:33;;;;;;;6.17;3.30;;;5.80;50.80;;;;;;5032939;28;21038;-51
2021/04/07 02:59:00;;;;;;;4.03;2.80;;;5.80;50.70;;;;;;5032950;28;20730;-51
2021/04/07 03:01:27;;;;;;;6.20;3.47;;;5.80;50.60;;;;;;5033375;28;20720;-51
2021/04/07 03:03:54;;;;;;;8.97;3.97;;;5.80;50.80;;;;;;5033000;28;20700;-51
2021/04/07 03:06:22;;;;;;;5.33;3.10;;;5.80;50.60;;;;;;5033063;28;21117;-51
2021/04/07 03:08:48;;;;;;;3.47;3.23;;;5.80;50.50;;;;;;5033287;28;20638;-51
2021/04/07 03:11:15;;;;;;;5.53;3.50;;;5.70;50.10;;;;;;5032516;28;21027;-50
2021/04/07 03:13:42;;;;;;;2.97;2.40;;;5.70;50.40;;;;;;5033217;28;21249;-51
2021/04/07 03:16:09;;;;;;;3.10;2.83;;;5.70;50.20;;;;;;5033161;28;20676;-50
2021/04/07 03:18:36;;;;;;;7.03;4.13;;;5.70;50.30;;;;;;5032666;28;20633;-51
2021/04/07 03:21:02;;;;;;;4.90;3.03;;;5.70;50.40;;;;;;5031392;28;20232;-51
2021/04/07 03:23:30;;;;;;;4.50;2.50;;;5.80;50.70;;;;;;5031428;28;20625;-50
2021/04/07 03:25:57;;;;;;;5.17;2.97;;;5.80;50.50;;;;;;5032810;28;21272;-52
2021/04/07 03:28:24;;;;;;;5.30;2.90;;;5.80;50.00;;;;;;5031505;28;20651;-51
2021/04/07 03:30:51;;;;;;;2.97;2.70;;;5.80;50.00;;;;;;5032491;28;20647;-51
2021/04/07 03:33:18;;;;;;;5.70;3.40;;;5.80;50.00;;;;;;5047597;28;20713;-51
2021/04/07 03:35:45;;;;;;;4.05;2.97;;;5.70;50.00;;;;;;5032335;28;20700;-52
2021/04/07 03:38:12;;;;;;;9.37;3.80;;;5.70;50.40;;;;;;5032547;28;20208;-50
2021/04/07 03:40:40;;;;;;;3.37;3.07;;;5.70;50.70;;;;;;5032263;28;20999;-51
2021/04/07 03:43:07;;;;;;;7.47;4.40;;;5.60;50.40;;;;;;5030984;28;20678;-51
2021/04/07 03:45:33;;;;;;;7.40;3.70;;;5.50;50.60;;;;;;5031939;28;20635;-50
2021/04/07 03:48:00;;;;;;;7.03;2.78;;;5.40;50.80;;;;;;5031686;28;20716;-51
2021/04/07 03:50:27;;;;;;;4.60;2.80;;;5.40;51.00;;;;;;5032075;28;20246;-50
2021/04/07 03:52:54;;;;;;;7.03;4.60;;;5.40;51.00;;;;;;5032062;28;20709;-50
2021/04/07 03:55:21;;;;;;;6.13;3.10;;;5.40;51.00;;;;;;5030041;28;20195;-50
2021/04/07 03:57:48;;;;;;;4.17;3.00;;;5.50;50.90;;;;;;5031958;28;20204;-51
2021/04/07 04:00:16;;;;;;;7.93;2.90;;;5.50;50.80;;;;;;5030005;28;20952;-51
2021/04/07 04:02:42;;;;;;;5.03;2.93;;;5.60;50.70;;;;;;5017684;28;20650;-51
2021/04/07 04:05:10;;;;;;;4.55;3.78;;;5.50;50.70;;;;;;5032085;28;21180;-50
2021/04/07 04:07:37;;;;;;;4.60;3.13;;;5.60;50.50;;;;;;5031430;28;20212;-51
2021/04/07 04:10:04;;;;;;;5.63;3.33;;;5.60;50.40;;;;;;5031754;28;21034;-51
2021/04/07 04:12:31;;;;;;;3.90;3.20;;;5.60;50.70;;;;;;5028062;28;20709;-51
2021/04/07 04:14:59;;;;;;;4.47;3.07;;;5.60;50.90;;;;;;5031762;28;20642;-52
2021/04/07 04:17:25;;;;;;;4.37;3.30;;;5.60;50.60;;;;;;5031580;28;21230;-52
2021/04/07 04:19:52;;;;;;;3.00;2.20;;;5.60;50.80;;;;;;5031374;28;20627;-52
2021/04/07 04:22:19;;;;;;;6.13;2.90;;;5.60;50.90;;;;;;5030450;28;20716;-51
2021/04/07 04:24:46;;;;;;;5.32;3.30;;;5.60;50.70;;;;;;5023677;28;20197;-50
2021/04/07 04:27:13;;;;;;;5.22;3.17;;;5.50;50.90;;;;;;5040775;28;20277;-51
2021/04/07 04:29:40;;;;;;;6.38;3.35;;;5.40;51.20;;;;;;5044915;28;20207;-51
2021/04/07 04:32:08;;;;;;;9.88;3.85;;;5.40;51.30;;;;;;5051393;28;20800;-50
2021/04/07 04:34:34;;;;;;;4.43;2.60;;;5.40;51.40;;;;;;5041896;28;20209;-50
2021/04/07 04:37:01;;;;;;;5.13;4.73;;;5.40;51.90;;;;;;5032110;28;20634;-50
2021/04/07 04:39:28;;;;;;;11.87;3.90;;;5.30;51.40;;;;;;5031292;28;21194;-51
2021/04/07 04:41:55;;;;;;;3.42;2.42;;;5.30;51.60;;;;;;5045865;28;20646;-50
2021/04/07 04:44:21;;;;;;;8.10;3.73;;;5.30;51.60;;;;;;5046285;28;20367;-50
2021/04/07 04:46:48;;;;;;;8.18;3.00;;;5.30;51.80;;;;;;5031079;28;20658;-50
2021/04/07 04:49:16;;;;;;;13.30;4.30;;;5.30;52.10;;;;;;5030898;28;20721;-50
2021/04/07 04:51:43;;;;;;;9.47;3.97;;;5.30;52.20;;;;;;5031252;28;20674;-50
2021/04/07 04:54:09;;;;;;;4.65;2.97;;;5.20;52.10;;;;;;5038599;28;20630;-51
2021/04/07 04:56:38;;;;;;;4.10;2.90;;;5.20;52.10;;;;;;5045128;28;20207;-51
2021/04/07 04:59:04;;;;;;;10.00;3.15;;;5.10;52.30;;;;;;5048967;28;21217;-51
2021/04/07 05:01:31;;;;;;;5.32;2.75;;;5.10;52.60;;;;;;5041055;28;20250;-51
2021/04/07 05:03:58;;;;;;;2.83;2.30;;;5.10;52.80;;;;;;5030506;28;20223;-51
2021/04/07 05:06:26;;;;;;;5.07;2.17;;;5.10;53.00;;;;;;5030897;28;20693;-51
2021/04/07 05:08:53;;;;;;;2.15;1.73;;;5.00;52.60;;;;;;5030234;28;20212;-52
2021/04/07 05:11:19;;;;;;;3.00;1.95;;;5.00;53.00;;;;;;5030971;28;20581;-51
2021/04/07 05:13:46;;;;;;;12.30;3.35;;;4.90;52.80;;;;;;5030979;28;20579;-50
2021/04/07 05:16:13;;;;;;;5.70;2.72;;;4.90;53.00;;;;;;5030310;28;20355;-51
2021/04/07 05:18:40;;;;;;;2.05;1.35;;;4.90;53.10;;;;;;5030282;28;20203;-51
2021/04/07 05:21:06;;;;;;;10.60;2.65;;;4.90;53.20;;;;;;5031041;28;20286;-50
2021/04/07 05:23:34;;;;;;;2.20;1.92;;;4.90;53.40;;;;;;5030523;28;20235;-50
2021/04/07 05:26:01;;;;;;;4.13;1.92;;;4.90;53.40;;;;;;5030581;28;20242;-51
2021/04/07 05:28:27;;;;;;;4.60;1.38;;;4.90;53.10;;;;;;5030166;28;20233;-51
2021/04/07 05:31:01;;;;;;;6.55;2.10;;;4.90;52.70;;;;;;5030772;28;20255;-51
2021/04/07 05:33:28;;;;;;;2.97;1.10;;;4.90;52.70;;;;;;5030336;28;20712;-52
2021/04/07 05:35:55;;;;;;;4.10;2.05;;;4.90;52.50;;;;;;5031052;28;20716;-51
2021/04/07 05:38:23;;;;;;;2.42;1.60;;;4.80;52.30;;;;;;5030608;28;20294;-52
2021/04/07 05:40:51;;;;;;;4.70;1.83;;;4.90;52.60;;;;;;5030936;28;20212;-52
2021/04/07 05:43:18;;;;;;;5.85;1.98;;;4.90;52.60;;;;;;5030524;28;20199;-52
2021/04/07 05:45:45;;;;;;;5.47;1.98;;;5.00;52.60;;;;;;5029350;28;20199;-51
2021/04/07 05:48:12;;;;;;;2.30;1.40;;;4.90;52.60;;;;;;5028092;28;20612;-51
2021/04/07 05:50:39;;;;;;;2.50;1.80;;;4.90;52.30;;;;;;5022126;28;20657;-55
2021/04/07 05:53:06;;;;;;;2.97;1.30;;;4.90;52.20;;;;;;5030846;28;20263;-53
2021/04/07 05:55:32;;;;;;;2.75;1.60;;;4.80;52.00;;;;;;5033084;28;20589;-53
2021/04/07 05:58:00;;;;;;;7.80;1.92;;;4.70;52.00;;;;;;5034217;28;20211;-51
2021/04/07 06:00:28;;;;;;;6.03;2.23;;;4.80;52.80;;;;;;5032732;28;20597;-51
2021/04/07 06:02:55;;;;;;;3.35;2.15;;;4.90;52.30;;;;;;5033975;28;20662;-51
2021/04/07 06:05:22;;;;;;;7.07;1.95;;;5.00;52.20;;;;;;5033690;28;20207;-51
2021/04/07 06:07:49;;;;;;;2.15;1.80;;;4.90;52.00;;;;;;5033811;28;20216;-51
2021/04/07 06:10:16;;;;;;;4.00;1.55;;;4.90;51.80;;;;;;5034606;28;20230;-51
2021/04/07 06:12:43;;;;;;;2.50;2.30;;;4.80;51.70;;;;;;5034279;28;20295;-51
2021/04/07 06:15:12;;;;;;;7.93;2.10;;;4.80;51.80;;;;;;5033111;28;20250;-51
2021/04/07 06:17:40;;;;;;;1.48;1.38;;;4.80;51.80;;;;;;5033708;28;20746;-51
2021/04/07 06:20:08;;;;;;;2.70;1.42;;;4.80;51.90;;;;;;5015148;28;20247;-53
2021/04/07 06:22:35;;;;;;;4.90;2.47;;;4.70;51.80;;;;;;5016149;28;20224;-51
2021/04/07 06:25:06;;;;;;;4.20;2.50;;;4.80;52.00;;;;;;5017428;28;21245;-54
2021/04/07 06:27:35;;;;;;;11.47;2.47;;;4.80;51.80;;;;;;5031114;28;20226;-52
2021/04/07 06:30:13;;;;;;;5.32;2.25;;;4.80;51.50;;;;;;5014433;28;21023;-51
2021/04/07 06:32:41;;;;;;;3.60;1.73;;;4.90;51.30;;;;;;5022240;28;20231;-51
2021/04/07 06:35:13;;;;;;;5.22;2.35;;;4.90;51.20;;;;;;5033908;28;20253;-51
2021/04/07 06:37:40;;;;;;;5.10;2.45;;;4.90;51.20;;;;;;5033238;28;20215;-51
2021/04/07 06:40:12;;;;;;;1.42;1.33;;;4.80;51.00;;;;;;5033300;28;20207;-55
2021/04/07 06:42:39;;;;;;;3.40;1.40;;;4.70;51.30;;;;;;5033371;28;20274;-55
2021/04/07 06:45:07;;;;;;;2.20;1.10;;;4.60;51.80;;;;;;5033404;28;20657;-50
2021/04/07 06:47:34;;;;;;;2.50;1.75;;;4.60;52.00;;;;;;5033574;28;20632;-51
2021/04/07 06:50:08;;;;;;;5.60;2.58;;;4.70;52.10;;;;;;5033794;28;20204;-53
2021/04/07 06:52:35;;;;;;;5.07;1.73;;;4.80;52.30;;;;;;5022680;28;20224;-51
2021/04/07 06:55:02;;;;;;;3.85;2.80;;;4.90;51.70;;;;;;5021224;28;20242;-54
2021/04/07 06:57:29;;;;;;;2.58;1.60;;;4.90;52.00;;;;;;5023310;28;20204;-52
2021/04/07 06:59:56;;;;;;;4.93;1.60;;;5.00;51.70;;;;;;5021566;28;20244;-51
2021/04/07 07:02:25;;;;;;;6.70;2.70;;;5.00;51.40;;;;;;5021178;28;20655;-53
2021/04/07 07:04:52;;;;;;;2.83;1.90;;;5.00;51.50;;;;;;5022107;28;20594;-53
2021/04/07 07:07:19;;;;;;;2.63;1.33;;;5.00;51.60;;;;;;5021486;28;20633;-51
2021/04/07 07:09:52;;;;;;;4.20;2.03;;;5.10;51.70;;;;;;5020595;28;20195;-55
2021/04/07 07:12:19;;;;;;;2.83;1.63;;;5.20;51.70;;;;;;5022780;28;21025;-50
2021/04/07 07:14:51;;;;;;;2.57;1.40;;;5.30;51.80;;;;;;5013332;28;20638;-52
2021/04/07 07:17:27;;;;;;;1.88;1.13;;;5.20;51.50;;;;;;5015638;28;20982;-51
2021/04/07 07:19:57;;;;;;;1.40;1.30;;;5.20;51.80;;;;;;5032790;28;20634;-53
2021/04/07 07:22:26;;;;;;;5.00;2.45;;;5.10;52.00;;;;;;5032643;28;20282;-53
2021/04/07 07:24:54;;;;;;;3.05;1.90;;;5.10;52.30;;;;;;5032629;28;20299;-51
2021/04/07 07:27:21;;;;;;;5.22;3.65;;;5.20;52.90;;;;;;5030211;28;20745;-52
2021/04/07 07:29:55;;;;;;;6.65;2.30;;;5.10;53.10;;;;;;5012373;28;20216;-51
2021/04/07 07:32:32;;;;;;;3.63;2.22;;;5.10;53.80;;;;;;5012556;28;20631;-51
2021/04/07 07:35:06;;;;;;;5.63;2.47;;;5.10;53.60;;;;;;5012810;28;20224;-51
2021/04/07 07:37:34;;;;;;;3.47;1.40;;;5.10;53.50;;;;;;5012535;28;20196;-51
2021/04/07 07:40:01;;;;;;;1.50;1.40;;;5.10;53.40;;;;;;5012788;28;20635;-52
2021/04/07 07:42:28;;;;;;;3.33;2.28;;;5.10;53.90;;;;;;5012644;28;20652;-52
2021/04/07 07:44:55;;;;;;;3.10;2.17;;;5.20;54.20;;;;;;5012741;28;20251;-52
2021/04/07 07:47:25;;;;;;;3.00;2.63;;;5.10;54.80;;;;;;5012108;28;20620;-52
2021/04/07 07:49:59;;;;;;;3.10;2.50;;;5.10;55.40;;;;;;5010501;28;20200;-53
2021/04/07 07:52:27;;;;;;;4.40;3.00;;;5.20;55.80;;;;;;5012248;28;20667;-53
2021/04/07 07:54:55;;;;;;;2.43;2.13;;;5.20;55.80;;;;;;5011717;28;20628;-52
2021/04/07 07:57:22;;;;;;;3.50;2.70;;;5.30;56.40;;;;;;5016048;28;20654;-52
2021/04/07 07:59:49;;;;;;;2.10;1.80;;;5.30;56.90;;;;;;5030422;28;20277;-52
2021/04/07 08:02:18;;;;;;;6.70;2.85;;;5.20;56.30;;;;;;5032229;28;20667;-53
2021/04/07 08:04:46;;;;;;;3.57;2.60;;;5.10;56.90;;;;;;5031947;28;20212;-52
2021/04/07 08:07:14;;;;;;;2.90;2.60;;;5.20;57.10;;;;;;5032020;28;20664;-52
2021/04/07 08:09:43;;;;;;;2.28;1.58;;;5.20;56.30;;;;;;5032776;28;20623;-51
2021/04/07 08:12:11;;;;;;;7.43;3.10;;;5.30;55.80;;;;;;5031891;28;20261;-53
2021/04/07 08:14:41;;;;;;;6.95;2.55;;;5.30;55.10;;;;;;5031995;28;21043;-52
2021/04/07 08:17:08;;;;;;;3.27;2.70;;;5.40;54.90;;;;;;5031794;28;20211;-52
2021/04/07 08:19:35;;;;;;;5.95;2.30;;;5.50;54.30;;;;;;5031090;28;20638;-51
2021/04/07 08:22:04;;;;;;;3.70;1.63;;;5.60;53.90;;;;;;5030957;28;20221;-53
2021/04/07 08:24:31;;;;;;;5.70;2.53;;;5.60;53.20;;;;;;5031100;28;20676;-52
2021/04/07 08:26:58;;;;;;;6.40;2.90;;;5.60;53.20;;;;;;5031162;28;20710;-54
2021/04/07 08:29:25;;;;;;;9.43;2.80;;;5.80;53.30;;;;;;5031113;28;20758;-51
2021/04/07 08:31:55;;;;;;;4.13;2.40;;;6.00;53.30;;;;;;5031748;28;20710;-51
2021/04/07 08:34:22;;;;;;;4.43;3.00;;;6.00;52.50;;;;;;5031135;28;21234;-52
2021/04/07 08:36:49;;;;;;;4.13;3.10;;;6.00;51.90;;;;;;5031298;28;21003;-51
2021/04/07 08:39:17;;;;;;;3.63;2.20;;;6.00;52.00;;;;;;5029148;28;20627;-51
2021/04/07 08:41:45;;;;;;;4.63;2.20;;;6.10;51.80;;;;;;5031854;28;21222;-53
2021/04/07 08:44:12;;;;;;;3.40;2.00;;;6.10;51.50;;;;;;5031378;28;20654;-51
2021/04/07 08:46:44;;;;;;;6.10;2.80;;;6.00;51.70;;;;;;5031588;28;21143;-52
2021/04/07 08:49:32;;;;;;;5.97;2.57;;;6.00;51.70;;;;;;5031308;28;20706;-53
2021/04/07 08:51:59;;;;;;;4.87;2.80;;;6.10;51.60;;;;;;5029856;28;20732;-51
2021/04/07 08:54:26;;;;;;;3.47;2.13;;;6.20;51.60;;;;;;5030672;28;21338;-53
2021/04/07 08:56:54;;;;;;;3.57;2.57;;;6.10;51.40;;;;;;5031277;28;20634;-52
2021/04/07 08:59:23;;;;;;;6.70;2.10;;;6.20;52.00;;;;;;5030992;28;20935;-50
2021/04/07 09:01:50;;;;;;;2.90;1.97;;;6.30;52.00;;;;;;5031427;28;20689;-52
2021/04/07 09:04:19;;;;;;;5.80;3.50;;;6.40;52.30;;;;;;5030794;28;20982;-51
2021/04/07 09:06:57;;;;;;;4.27;2.13;;;6.50;52.00;;;;;;5031049;28;20990;-52
2021/04/07 09:09:24;;;;;;;3.57;1.80;;;6.60;51.20;;;;;;5030624;28;20681;-52
2021/04/07 09:11:51;;;;;;;3.40;1.57;;;6.60;51.00;;;;;;5030808;28;20651;-49
2021/04/07 09:14:18;;;;;;;6.93;3.33;;;6.70;50.60;;;;;;5031358;28;21277;-52
2021/04/07 09:16:45;;;;;;;4.60;2.27;;;6.70;50.50;;;;;;5030976;28;20685;-52
2021/04/07 09:19:14;;;;;;;2.70;1.60;;;6.80;50.50;;;;;;5030843;28;20965;-53
2021/04/07 09:21:51;;;;;;;4.60;2.30;;;6.90;50.30;;;;;;5031288;28;20668;-51
2021/04/07 09:24:18;;;;;;;2.43;1.80;;;7.00;49.40;;;;;;5030996;28;20627;-53
2021/04/07 09:26:46;;;;;;;5.43;2.53;;;6.90;48.60;;;;;;5030916;28;20627;-53
2021/04/07 09:29:13;;;;;;;6.83;2.27;;;6.90;49.00;;;;;;5031570;28;20628;-52
2021/04/07 09:31:42;;;;;;;2.60;2.40;;;6.90;48.60;;;;;;5034747;28;20700;-52
2021/04/07 09:34:13;;;;;;;4.70;2.57;;;7.00;48.80;;;;;;5034950;28;20703;-53
2021/04/07 09:36:41;;;;;;;3.00;2.43;;;7.10;48.50;;;;;;5033859;28;20638;-51
2021/04/07 09:39:23;;;;;;;12.80;2.10;;;7.00;47.70;;;;;;5034654;28;20991;-51
2021/04/07 09:41:50;;;;;;;3.97;3.07;;;7.00;47.70;;;;;;5034833;28;20651;-52
2021/04/07 09:44:17;;;;;;;1.57;1.43;;;7.00;47.90;;;;;;5035184;28;20624;-52
2021/04/07 09:46:50;;;;;;;2.80;1.77;;;7.00;48.10;;;;;;5034205;28;20643;-52
2021/04/07 09:49:18;;;;;;;4.13;2.00;;;6.80;48.10;;;;;;5033925;28;20769;-52
2021/04/07 09:51:45;;;;;;;6.97;2.67;;;6.80;47.90;;;;;;5034524;28;20748;-51
2021/04/07 09:54:17;;;;;;;5.93;2.03;;;6.80;47.20;;;;;;5033515;28;20663;-51
2021/04/07 09:56:48;;;;;;;2.40;1.80;;;6.80;47.50;;;;;;5033941;28;21045;-52
2021/04/07 09:59:15;;;;;;;2.40;1.90;;;6.80;46.90;;;;;;5033977;28;20631;-52
2021/04/07 10:01:42;;;;;;;3.20;2.60;;;6.80;47.00;;;;;;5034279;28;20654;-52
2021/04/07 10:04:10;;;;;;;6.93;2.23;;;6.80;47.30;;;;;;5032752;28;20697;-51
2021/04/07 10:06:38;;;;;;;2.83;1.60;;;6.80;47.40;;;;;;5034571;28;20627;-51
2021/04/07 10:09:06;;;;;;;4.47;2.90;;;6.60;48.10;;;;;;5034483;28;20632;-52
2021/04/07 10:11:35;;;;;;;4.23;1.87;;;6.50;49.70;;;;;;5034705;28;20732;-52
2021/04/07 10:14:02;;;;;;;4.10;1.70;;;6.40;50.40;;;;;;5036118;28;20658;-52
2021/04/07 10:16:32;;;;;;;4.43;1.93;;;6.40;51.40;;;;;;5034482;28;20977;-50
2021/04/07 10:18:59;;;;;;;2.53;1.97;;;6.40;51.20;;;;;;5033786;28;20663;-53
2021/04/07 10:21:27;;;;;;;2.97;2.20;;;6.30;51.00;;;;;;5034371;28;20712;-52
2021/04/07 10:23:57;;;;;;;5.97;2.47;;;6.30;51.70;;;;;;5033880;28;20693;-51
2021/04/07 10:26:24;;;;;;;9.03;2.97;;;6.30;51.90;;;;;;5034283;28;20634;-52
2021/04/07 10:28:55;;;;;;;6.73;3.60;;;6.30;51.00;;;;;;5033557;28;20662;-52
2021/04/07 10:31:22;;;;;;;6.20;2.17;;;6.30;51.10;;;;;;5033092;28;20657;-53
2021/04/07 10:33:49;;;;;;;5.93;1.70;;;6.20;50.70;;;;;;5033900;28;20658;-52
2021/04/07 10:36:15;;;;;;;11.30;2.17;;;6.10;51.00;;;;;;5033624;28;20672;-52
2021/04/07 10:38:43;;;;;;;4.70;2.50;;;6.20;50.90;;;;;;5031634;28;20672;-52
2021/04/07 10:41:17;;;;;;;5.30;2.47;;;6.20;50.70;;;;;;5032799;28;21012;-54
2021/04/07 10:43:46;;;;;;;3.60;2.63;;;6.20;51.10;;;;;;5033955;28;20623;-56
2021/04/07 10:46:15;;;;;;;3.63;1.70;;;6.30;51.50;;;;;;5034100;28;20742;-51
2021/04/07 10:48:59;;;;;;;7.30;2.60;;;6.30;52.00;;;;;;5033199;28;21171;-52
2021/04/07 10:51:26;;;;;;;7.00;2.33;;;6.30;52.50;;;;;;5033786;28;20655;-52
2021/04/07 10:53:59;;;;;;;7.30;2.90;;;6.30;53.30;;;;;;5033276;28;20686;-51
2021/04/07 10:56:27;;;;;;;4.50;1.80;;;6.40;53.60;;;;;;5033436;28;20744;-52
2021/04/07 10:58:55;;;;;;;2.73;2.53;;;6.30;53.10;;;;;;5033058;28;20669;-55
2021/04/07 11:01:29;;;;;;;2.07;1.73;;;6.30;54.40;;;;;;5033179;28;20651;-54
2021/04/07 11:03:55;;;;;;;2.60;1.80;;;6.20;54.90;;;;;;5029753;28;20635;-52
2021/04/07 11:06:22;;;;;;;2.73;1.90;;;6.20;55.50;;;;;;5033066;28;20661;-54
2021/04/07 11:08:50;;;;;;;5.00;2.00;;;6.10;56.20;;;;;;5032076;28;21171;-51
2021/04/07 11:11:20;;;;;;;4.73;2.93;;;6.00;57.20;;;;;;5031424;28;20812;-51
2021/04/07 11:13:48;;;;;;;5.73;1.93;;;6.00;57.80;;;;;;5032710;28;21262;-51
2021/04/07 11:16:15;;;;;;;4.80;2.00;;;5.90;58.10;;;;;;5033185;28;20662;-53
2021/04/07 11:18:42;;;;;;;4.20;2.83;;;5.90;58.70;;;;;;5032825;28;20636;-52
2021/04/07 11:21:09;;;;;;;1.57;1.47;;;5.90;58.70;;;;;;5032818;28;20728;-52
2021/04/07 11:23:36;;;;;;;4.93;1.60;;;5.70;58.70;;;;;;5030796;28;20725;-53
2021/04/07 11:26:04;;;;;;;3.43;2.10;;;5.60;60.80;;;;;;5032130;28;21031;-51
2021/04/07 11:28:31;;;;;;;3.30;1.30;;;5.50;62.00;;;;;;5032493;28;20696;-53
2021/04/07 11:31:02;;;;;;;9.93;3.03;;;5.60;63.30;;;;;;5032685;28;20658;-54
2021/04/07 11:33:36;;;;;;;3.50;2.20;;;5.60;63.40;;;;;;5033022;28;20666;-52
2021/04/07 11:36:09;;;;;;;3.65;1.70;;;5.60;64.80;;;;;;5033012;28;20629;-51
2021/04/07 11:38:38;;;;;;;4.90;3.05;;;5.50;65.20;;;;;;5032082;28;20261;-50
2021/04/07 11:46:52;;;;;;;2.00;1.80;;;5.60;66.40;;;;;;5032746;28;20618;-53
2021/04/07 11:49:19;;;;;;;1.70;1.57;;;5.70;67.20;;;;;;5031562;28;20684;-52
2021/04/07 11:51:46;;;;;;;6.97;1.63;;;5.80;67.40;;;;;;5029944;28;21192;-54
2021/04/07 11:54:15;;;;;;;3.23;2.30;;;5.70;67.20;;;;;;5031810;28;21331;-55
2021/04/07 11:56:44;;;;;;;4.27;2.50;;;5.70;67.10;;;;;;5031230;28;20638;-51
2021/04/07 11:59:12;;;;;;;5.90;2.20;;;5.80;67.50;;;;;;5031889;28;21345;-52
2021/04/07 12:01:40;;;;;;;8.70;1.80;;;5.90;66.60;;;;;;5047459;28;20662;-51
2021/04/07 12:04:07;;;;;;;5.43;2.47;;;5.80;66.50;;;;;;5032368;28;20626;-52
2021/04/07 12:06:34;;;;;;;4.70;2.57;;;5.80;66.80;;;;;;5031660;28;20631;-50
2021/04/07 12:09:01;;;;;;;5.73;2.43;;;5.90;67.90;;;;;;5031656;28;21224;-51
2021/04/07 12:11:28;;;;;;;4.83;2.87;;;5.90;66.90;;;;;;5031662;28;20651;-53
2021/04/07 12:13:55;;;;;;;3.70;2.17;;;6.00;64.70;;;;;;5031685;28;20682;-52
2021/04/07 12:16:22;;;;;;;3.40;2.13;;;5.90;63.10;;;;;;5031722;28;20988;-54
2021/04/07 12:18:48;;;;;;;3.70;1.70;;;6.00;61.90;;;;;;5031451;28;21156;-52
2021/04/07 12:21:31;;;;;;;3.83;1.93;;;6.10;59.40;;;;;;5030885;28;20667;-53
2021/04/07 12:24:01;;;;;;;4.03;1.70;;;6.20;58.70;;;;;;5032114;28;21017;-54
2021/04/07 12:26:30;;;;;;;1.90;1.37;;;6.30;57.70;;;;;;5032256;28;20622;-50
2021/04/07 12:28:59;;;;;;;1.90;1.43;;;6.20;57.60;;;;;;5032045;28;20638;-52
2021/04/07 12:31:26;;;;;;;2.60;2.03;;;6.20;58.10;;;;;;5032077;28;20758;-55
2021/04/07 12:33:53;;;;;;;1.77;1.47;;;6.30;58.60;;;;;;5031231;28;21243;-53
2021/04/07 12:36:26;;;;;;;2.53;1.80;;;6.30;58.30;;;;;;5030935;28;20659;-53
2021/04/07 12:38:54;;;;;;;14.00;2.77;;;6.40;57.60;;;;;;5031403;28;20688;-52
2021/04/07 12:41:24;;;;;;;2.07;1.70;;;6.20;57.70;;;;;;5031376;28;20981;-52
2021/04/07 12:43:51;;;;;;;2.93;1.43;;;6.20;57.30;;;;;;5031353;28;20615;-52
2021/04/07 12:46:18;;;;;;;1.63;1.13;;;6.10;57.20;;;;;;5031636;28;20623;-54
2021/04/07 12:48:47;;;;;;;1.70;1.50;;;6.00;57.40;;;;;;5031359;28;21015;-50
2021/04/07 12:51:14;;;;;;;3.73;0.93;;;6.00;57.70;;;;;;5030608;28;20720;-52
2021/04/07 12:56:45;;;;;;;2.90;2.17;;;6.10;58.60;;;;;;5031523;28;20665;-52
2021/04/07 12:59:12;;;;;;;1.23;1.13;;;6.00;59.70;;;;;;5030398;28;20650;-51
2021/04/07 13:01:39;;;;;;;2.33;1.47;;;6.10;61.10;;;;;;5030754;28;20736;-51
2021/04/07 13:04:06;;;;;;;2.40;1.80;;;6.10;61.90;;;;;;5030354;28;20971;-52
2021/04/07 13:06:33;;;;;;;1.43;1.33;;;6.10;62.30;;;;;;5031059;28;20635;-51
2021/04/07 13:09:00;;;;;;;4.53;2.30;;;6.30;62.90;;;;;;5030609;28;20781;-51
2021/04/07 13:11:27;;;;;;;4.77;2.47;;;6.30;62.80;;;;;;5030944;28;20659;-51